Kezdőlap
METAR-TAF:

METAR-TAF

Repülőterek :

Båtsfjord, Norvégia

földrajzi szélesség: 70-38N, földrajzi hosszúság: 029-44E, magasság: 10 m

Jelenlegi meteorológiai megfigyelések

A jelentés 2 órával és 20 perccel ezelõtt készült, 02:50 UTC
Nyugat-délnyugati szél 17 kt széllökések: 27 kt
Hőmérséklet -7°C
Páratartalom 86%
Légköri nyomás 997 hPa
Kevés felhő 1000 lábon
Szórványos felhőzet 1600 lábon
Szakadozott felhőzet 1900 lábon
enyhe hózápor

METAR: ENBS 200250Z 24017G27KT -SHSN FEW010 SCT016 BKN019 M07/M09 Q0997 RESN

Idő: 06:10 (05:10 UTC)


TAF: hiányzik

Meteorológiai megfigyelések és előrejelzések több, mint 4000 repülőtéren (METAR és TAF jelentéseket).

A térképen piros és sárga pontok jelzik az elérhető meteorológiai állomásokat.

Mozgassa az egeret a pont fölött, hogy megjelenjen az állomás neve.

Azután kattintson az időjárási megfigyelések és előrejelzések megtekintéséhez.

A térkép megváltoztatása: kattintson a fekete keresztel jelölt zöld gombra ráközelítéshez, a vonallal jelölt zöld gombra távolításhoz, vagy a zöld nyilakra a szomszédos térképek eléréséhez.


METAR-TAF: